createdAt,value
2023-02-14T00:00:50.297Z,21.33
2023-02-14T00:03:16.685Z,20.10
2023-02-14T00:05:43.224Z,20.70
2023-02-14T00:08:09.664Z,19.67
2023-02-14T00:10:36.124Z,20.17
2023-02-14T00:13:02.835Z,20.03
2023-02-14T00:15:29.220Z,18.23
2023-02-14T00:17:56.692Z,18.50
2023-02-14T00:20:23.153Z,19.30
2023-02-14T00:22:49.601Z,19.27
2023-02-14T00:25:16.274Z,18.77
2023-02-14T00:27:43.009Z,20.73
2023-02-14T00:30:10.307Z,19.40
2023-02-14T00:32:39.740Z,19.67
2023-02-14T00:35:07.152Z,19.03
2023-02-14T00:37:33.866Z,19.60
2023-02-14T00:40:00.308Z,19.57
2023-02-14T00:42:26.671Z,20.43
2023-02-14T00:44:53.071Z,20.77
2023-02-14T00:47:19.500Z,19.67
2023-02-14T00:49:45.963Z,20.53
2023-02-14T00:52:12.372Z,19.87
2023-02-14T00:54:38.719Z,20.00
2023-02-14T00:57:05.165Z,20.63
2023-02-14T00:59:31.583Z,19.47
2023-02-14T01:01:57.986Z,19.43
2023-02-14T01:04:24.568Z,20.07
2023-02-14T01:06:50.978Z,19.30
2023-02-14T01:09:17.332Z,18.70
2023-02-14T01:11:43.711Z,20.50
2023-02-14T01:14:10.036Z,19.50
2023-02-14T01:16:38.340Z,19.07
2023-02-14T01:19:04.833Z,19.00
2023-02-14T01:21:32.640Z,18.70
2023-02-14T01:24:00.429Z,18.83
2023-02-14T01:26:27.178Z,18.50
2023-02-14T01:28:53.702Z,19.50
2023-02-14T01:31:24.628Z,19.23
2023-02-14T01:33:51.521Z,21.10
2023-02-14T01:36:19.153Z,19.47
2023-02-14T01:38:45.721Z,20.27
2023-02-14T01:41:12.223Z,19.30
2023-02-14T01:43:49.707Z,20.87
2023-02-14T01:46:16.272Z,19.80
2023-02-14T01:48:42.680Z,18.20
2023-02-14T01:51:09.185Z,21.30
2023-02-14T01:53:35.687Z,19.13
2023-02-14T01:56:04.856Z,19.13
2023-02-14T01:58:35.333Z,18.43
2023-02-14T02:01:03.761Z,18.97
2023-02-14T02:03:34.268Z,18.40
2023-02-14T02:06:06.858Z,20.00
2023-02-14T02:08:35.053Z,18.93
2023-02-14T02:11:01.745Z,16.77
2023-02-14T02:13:28.307Z,18.60
2023-02-14T02:16:13.683Z,19.93
2023-02-14T02:18:40.139Z,19.33
2023-02-14T02:21:15.916Z,18.00
2023-02-14T02:24:00.384Z,19.13
2023-02-14T02:26:37.619Z,20.40
2023-02-14T02:29:15.984Z,19.40
2023-02-14T02:32:07.419Z,19.20
2023-02-14T02:34:52.436Z,19.67
2023-02-14T02:37:33.259Z,19.00
2023-02-14T02:40:18.588Z,18.70
2023-02-14T02:43:00.302Z,19.57
2023-02-14T02:45:35.740Z,18.73
2023-02-14T02:48:02.173Z,19.30
2023-02-14T02:50:50.337Z,19.87
2023-02-14T02:53:16.679Z,19.63
2023-02-14T02:56:01.586Z,19.53
2023-02-14T02:58:31.753Z,20.00
2023-02-14T03:01:00.009Z,19.20
2023-02-14T03:03:46.763Z,18.93
2023-02-14T03:06:13.135Z,20.67
2023-02-14T03:08:39.561Z,19.33
2023-02-14T03:11:05.979Z,20.30
2023-02-14T03:13:41.552Z,19.03
2023-02-14T03:16:11.034Z,21.63
2023-02-14T03:18:46.438Z,21.23
2023-02-14T03:21:31.721Z,19.83
2023-02-14T03:24:02.938Z,19.60
2023-02-14T03:26:35.758Z,21.27
2023-02-14T03:29:07.032Z,21.13
2023-02-14T03:31:40.708Z,18.83
2023-02-14T03:34:13.386Z,18.63
2023-02-14T03:36:47.839Z,19.03
2023-02-14T03:39:26.790Z,20.30
2023-02-14T03:42:06.381Z,20.10
2023-02-14T03:44:33.781Z,19.70
2023-02-14T03:47:09.516Z,19.60
2023-02-14T03:49:38.930Z,20.43
2023-02-14T03:52:07.301Z,18.10
2023-02-14T03:54:34.485Z,18.47
2023-02-14T03:57:16.390Z,20.10
2023-02-14T03:59:43.415Z,19.43
2023-02-14T04:02:29.302Z,20.93
2023-02-14T04:04:56.683Z,20.97
2023-02-14T04:07:24.145Z,20.77
2023-02-14T04:09:50.843Z,21.73
2023-02-14T04:12:21.642Z,21.83
2023-02-14T04:14:50.309Z,21.40
2023-02-14T04:17:35.234Z,21.43
2023-02-14T04:20:01.689Z,22.23
2023-02-14T04:22:28.117Z,22.37
2023-02-14T04:24:54.527Z,25.30
2023-02-14T04:27:20.949Z,21.83
2023-02-14T04:29:51.026Z,21.20
2023-02-14T04:32:18.981Z,22.07
2023-02-14T04:34:45.615Z,21.63
2023-02-14T04:37:12.725Z,21.20
2023-02-14T04:39:39.196Z,23.67
2023-02-14T04:42:05.684Z,20.70
2023-02-14T04:44:34.034Z,22.73
2023-02-14T04:47:00.641Z,21.93
2023-02-14T04:49:27.204Z,20.47
2023-02-14T04:51:53.626Z,32.33
2023-02-14T04:54:19.999Z,22.10
2023-02-14T04:56:46.401Z,21.47
2023-02-14T04:59:14.517Z,22.23
2023-02-14T05:01:41.210Z,22.77
2023-02-14T05:04:07.994Z,20.93
2023-02-14T05:06:34.465Z,22.60
2023-02-14T05:09:01.330Z,22.70
2023-02-14T05:11:28.098Z,22.50
2023-02-14T05:13:54.921Z,21.80
2023-02-14T05:16:21.406Z,21.20
2023-02-14T05:18:47.818Z,22.83
2023-02-14T05:21:14.212Z,21.80
2023-02-14T05:23:40.905Z,21.63
2023-02-14T05:26:07.601Z,20.33
2023-02-14T05:28:34.064Z,20.40
2023-02-14T05:31:00.810Z,23.17
2023-02-14T05:33:27.608Z,21.90
2023-02-14T05:35:54.043Z,21.90
2023-02-14T05:38:20.507Z,20.87
2023-02-14T05:40:46.853Z,21.30
2023-02-14T05:43:13.307Z,19.77
2023-02-14T05:45:42.005Z,21.50
2023-02-14T05:48:08.378Z,21.53
2023-02-14T05:50:34.796Z,23.07
2023-02-14T05:53:01.237Z,22.30
2023-02-14T05:55:27.684Z,22.40
2023-02-14T05:57:54.095Z,21.30
2023-02-14T06:00:21.028Z,21.33
2023-02-14T06:02:47.385Z,21.33
2023-02-14T06:05:14.949Z,21.77
2023-02-14T06:07:43.318Z,22.50
2023-02-14T06:10:10.094Z,22.17
2023-02-14T06:12:36.445Z,23.33
2023-02-14T06:15:02.892Z,21.80
2023-02-14T06:17:29.434Z,20.20
2023-02-14T06:19:55.988Z,21.57
2023-02-14T06:22:22.375Z,21.67
2023-02-14T06:24:48.855Z,21.03
2023-02-14T06:27:15.246Z,21.13
2023-02-14T06:29:41.625Z,21.07
2023-02-14T06:32:08.184Z,21.87
2023-02-14T06:34:34.825Z,21.40
2023-02-14T06:37:01.272Z,21.20
2023-02-14T06:39:27.708Z,21.70
2023-02-14T06:41:54.133Z,21.83
2023-02-14T06:44:20.603Z,23.07
2023-02-14T06:46:47.024Z,19.80
2023-02-14T06:49:13.468Z,20.93
2023-02-14T06:51:39.855Z,20.60
2023-02-14T06:54:06.284Z,20.60
2023-02-14T06:56:32.800Z,20.97
2023-02-14T06:58:59.298Z,21.27
2023-02-14T07:01:25.912Z,20.33
2023-02-14T07:03:52.381Z,20.60
2023-02-14T07:06:18.824Z,20.57
2023-02-14T07:08:45.661Z,21.00
2023-02-14T07:11:12.022Z,20.87
2023-02-14T07:13:39.119Z,19.77
2023-02-14T07:16:05.846Z,21.83
2023-02-14T07:18:33.544Z,21.07
2023-02-14T07:21:00.295Z,21.50
2023-02-14T07:23:26.984Z,21.20
2023-02-14T07:25:54.638Z,18.53
2023-02-14T07:28:21.207Z,22.23
2023-02-14T07:30:47.831Z,21.13
2023-02-14T07:33:14.260Z,21.50
2023-02-14T07:35:40.639Z,21.70
2023-02-14T07:38:07.078Z,19.87
2023-02-14T07:40:33.708Z,20.47
2023-02-14T07:43:01.007Z,19.23
2023-02-14T07:45:27.595Z,18.90
2023-02-14T07:47:55.212Z,18.20
2023-02-14T07:50:22.787Z,19.10
2023-02-14T07:52:49.801Z,19.70
2023-02-14T07:55:16.519Z,18.90
2023-02-14T07:57:43.125Z,19.10
2023-02-14T08:00:09.761Z,18.07
2023-02-14T08:02:36.136Z,16.87
2023-02-14T08:05:02.713Z,17.33
2023-02-14T08:07:29.117Z,16.77
2023-02-14T08:09:55.497Z,17.53
2023-02-14T08:12:40.911Z,17.77
2023-02-14T08:15:26.009Z,17.23
2023-02-14T08:17:52.438Z,16.97
2023-02-14T08:20:18.883Z,16.50
2023-02-14T08:22:45.310Z,16.00
2023-02-14T08:25:11.933Z,16.40
2023-02-14T08:27:38.291Z,15.87
2023-02-14T08:30:05.986Z,15.87
2023-02-14T08:32:32.458Z,17.37
2023-02-14T08:34:58.939Z,16.70
2023-02-14T08:37:25.299Z,18.13
2023-02-14T08:39:51.793Z,15.87
2023-02-14T08:42:18.230Z,17.33
2023-02-14T08:44:44.636Z,18.57
2023-02-14T08:47:10.989Z,16.47
2023-02-14T08:49:37.571Z,16.60
2023-02-14T08:52:03.974Z,16.87
2023-02-14T08:54:30.378Z,17.93
2023-02-14T08:56:56.946Z,18.17
2023-02-14T08:59:23.524Z,18.23
2023-02-14T09:01:49.958Z,17.13
2023-02-14T09:04:16.384Z,16.87
2023-02-14T09:06:42.874Z,17.17
2023-02-14T09:09:09.299Z,16.73
2023-02-14T09:11:36.247Z,17.17
2023-02-14T09:14:02.585Z,16.10
2023-02-14T09:16:29.037Z,17.07
2023-02-14T09:18:59.668Z,16.50
2023-02-14T09:21:27.049Z,16.27
2023-02-14T09:23:53.829Z,17.23
2023-02-14T09:26:20.440Z,16.87
2023-02-14T09:28:47.238Z,16.57
2023-02-14T09:31:17.733Z,16.77
2023-02-14T09:33:44.988Z,16.77
2023-02-14T09:36:20.385Z,16.13
2023-02-14T09:38:48.080Z,15.70
2023-02-14T09:41:31.805Z,18.53
2023-02-14T09:44:20.283Z,16.30
2023-02-14T09:46:50.388Z,16.63
2023-02-14T09:49:19.113Z,15.63
2023-02-14T09:51:49.402Z,16.27
2023-02-14T09:54:24.504Z,15.80
2023-02-14T09:56:54.725Z,15.10
2023-02-14T09:59:27.420Z,16.03
2023-02-14T10:02:05.918Z,16.93
2023-02-14T10:04:34.580Z,16.70
2023-02-14T10:07:00.981Z,15.57
2023-02-14T10:09:40.300Z,16.47
2023-02-14T10:12:10.913Z,16.63
2023-02-14T10:14:40.945Z,16.90
2023-02-14T10:17:14.456Z,15.13
2023-02-14T10:19:43.289Z,15.90
2023-02-14T10:22:14.611Z,15.47
2023-02-14T10:24:45.519Z,14.23
2023-02-14T10:27:17.716Z,14.67
2023-02-14T10:29:44.148Z,15.00
2023-02-14T10:32:15.109Z,14.77
2023-02-14T10:34:41.680Z,14.93
2023-02-14T10:37:11.021Z,15.65
2023-02-14T10:39:57.716Z,15.77
2023-02-14T10:42:35.217Z,14.60
2023-02-14T10:45:04.745Z,14.55
2023-02-14T10:47:43.449Z,15.85
2023-02-14T10:50:09.871Z,15.27
2023-02-14T10:53:11.581Z,14.82
2023-02-14T10:55:46.929Z,14.30
2023-02-14T10:58:17.788Z,14.52
2023-02-14T11:00:50.682Z,14.65
2023-02-14T11:03:17.792Z,14.57
2023-02-14T11:05:50.179Z,14.30
2023-02-14T11:08:26.288Z,15.38
2023-02-14T11:10:54.354Z,14.77
2023-02-14T11:13:32.599Z,14.57
2023-02-14T11:16:00.145Z,14.60
2023-02-14T11:18:32.776Z,15.10
2023-02-14T11:21:00.106Z,15.27
2023-02-14T11:23:26.546Z,15.43
2023-02-14T11:25:55.625Z,16.15
2023-02-14T11:28:22.417Z,15.15
2023-02-14T11:30:50.525Z,15.27
2023-02-14T11:33:35.918Z,17.05
2023-02-14T11:36:03.703Z,15.65
2023-02-14T11:38:35.945Z,16.05
2023-02-14T11:41:03.294Z,16.08
2023-02-14T11:43:33.908Z,16.27
2023-02-14T11:46:18.597Z,17.92
2023-02-14T11:49:14.308Z,15.35
2023-02-14T11:51:45.394Z,15.23
2023-02-14T11:54:13.620Z,16.83
2023-02-14T11:56:45.863Z,15.18
2023-02-14T11:59:14.506Z,15.90
2023-02-14T12:01:41.084Z,15.30
2023-02-14T12:04:15.457Z,15.10
2023-02-14T12:06:41.929Z,15.32
2023-02-14T12:09:23.643Z,15.27
2023-02-14T12:11:56.689Z,15.68
2023-02-14T12:14:24.361Z,15.40
2023-02-14T12:16:58.624Z,15.68
2023-02-14T12:19:31.505Z,14.23
2023-02-14T12:22:03.404Z,13.95
2023-02-14T12:24:32.843Z,14.82
2023-02-14T12:27:18.279Z,14.65
2023-02-14T12:29:52.210Z,15.40
2023-02-14T12:32:18.611Z,13.93
2023-02-14T12:34:45.169Z,18.10
2023-02-14T12:37:14.823Z,15.05
2023-02-14T12:39:59.751Z,14.32
2023-02-14T12:42:27.401Z,13.75
2023-02-14T12:45:14.121Z,13.82
2023-02-14T12:48:00.849Z,13.70
2023-02-14T12:50:30.341Z,14.82
2023-02-14T12:53:04.892Z,14.32
2023-02-14T12:55:41.428Z,19.27
2023-02-14T12:58:23.592Z,15.15
2023-02-14T13:00:52.991Z,14.93
2023-02-14T13:03:22.296Z,14.68
2023-02-14T13:06:09.798Z,13.15
2023-02-14T13:09:01.485Z,14.52
2023-02-14T13:11:39.872Z,15.25
2023-02-14T13:14:28.518Z,15.48
2023-02-14T13:17:24.343Z,14.88
2023-02-14T13:19:56.223Z,15.00
2023-02-14T13:22:24.141Z,13.98
2023-02-14T13:24:52.386Z,15.23
2023-02-14T13:27:22.501Z,14.65
2023-02-14T13:29:54.488Z,15.93
2023-02-14T13:32:22.610Z,14.57
2023-02-14T13:34:49.562Z,16.10
2023-02-14T13:37:18.002Z,20.57
2023-02-14T13:39:47.665Z,17.92
2023-02-14T13:42:34.151Z,14.45
2023-02-14T13:45:00.597Z,15.07
2023-02-14T13:47:27.270Z,14.73
2023-02-14T13:49:58.581Z,15.00
2023-02-14T13:52:43.095Z,14.93
2023-02-14T13:55:14.615Z,14.07
2023-02-14T13:57:41.783Z,15.50
2023-02-14T14:00:21.652Z,15.43
2023-02-14T14:02:55.065Z,15.63
2023-02-14T14:05:44.633Z,15.17
2023-02-14T14:08:17.784Z,15.43
2023-02-14T14:10:45.436Z,14.37
2023-02-14T14:13:31.782Z,15.97
2023-02-14T14:16:17.118Z,16.13
2023-02-14T14:18:43.799Z,16.40
2023-02-14T14:21:37.602Z,15.50
2023-02-14T14:24:04.229Z,15.60
2023-02-14T14:26:39.702Z,16.13
2023-02-14T14:29:25.001Z,16.27
2023-02-14T14:31:55.849Z,17.07
2023-02-14T14:34:24.912Z,16.13
2023-02-14T14:37:03.317Z,15.07
2023-02-14T14:39:31.099Z,14.97
2023-02-14T14:42:06.912Z,15.90
2023-02-14T14:44:34.556Z,16.23
2023-02-14T14:47:01.251Z,16.47
2023-02-14T14:49:28.012Z,16.30
2023-02-14T14:51:55.457Z,16.37
2023-02-14T14:54:25.013Z,16.10
2023-02-14T14:56:57.144Z,16.80
2023-02-14T14:59:29.376Z,15.57
2023-02-14T15:01:56.150Z,16.27
2023-02-14T15:04:25.424Z,17.30
2023-02-14T15:06:52.144Z,15.60
2023-02-14T15:09:23.946Z,14.80
2023-02-14T15:12:10.857Z,14.67
2023-02-14T15:14:39.496Z,14.57
2023-02-14T15:17:07.198Z,16.30
2023-02-14T15:19:37.303Z,15.13
2023-02-14T15:22:05.984Z,15.30
2023-02-14T15:24:35.399Z,15.83
2023-02-14T15:27:02.932Z,16.53
2023-02-14T15:29:31.358Z,14.93
2023-02-14T15:32:00.485Z,15.53
2023-02-14T15:34:30.652Z,15.23
2023-02-14T15:37:03.684Z,15.17
2023-02-14T15:39:34.199Z,14.57
2023-02-14T15:42:00.748Z,15.37
2023-02-14T15:44:27.245Z,15.73
2023-02-14T15:46:55.537Z,16.33
2023-02-14T15:49:23.432Z,15.43
2023-02-14T15:51:50.485Z,14.97
2023-02-14T15:54:30.796Z,15.73
2023-02-14T15:56:58.838Z,16.10
2023-02-14T15:59:26.914Z,14.97
2023-02-14T16:01:55.063Z,15.23
2023-02-14T16:04:28.762Z,17.73
2023-02-14T16:07:07.437Z,15.80
2023-02-14T16:09:37.851Z,17.57
2023-02-14T16:12:22.828Z,16.07
2023-02-14T16:15:00.400Z,16.90
2023-02-14T16:17:34.641Z,16.97
2023-02-14T16:20:21.162Z,16.33
2023-02-14T16:22:47.568Z,16.50
2023-02-14T16:25:14.028Z,16.67
2023-02-14T16:27:40.552Z,16.40
2023-02-14T16:30:07.337Z,17.53
2023-02-14T16:32:33.966Z,16.83
2023-02-14T16:35:00.754Z,17.70
2023-02-14T16:37:30.125Z,16.87
2023-02-14T16:39:58.829Z,16.47
2023-02-14T16:42:25.399Z,19.13
2023-02-14T16:44:51.868Z,24.37
2023-02-14T16:47:19.794Z,17.73
2023-02-14T16:49:46.496Z,15.53
2023-02-14T16:52:14.681Z,17.23
2023-02-14T16:54:41.875Z,17.40
2023-02-14T16:57:12.667Z,15.67
2023-02-14T16:59:39.331Z,17.67
2023-02-14T17:02:05.738Z,17.47
2023-02-14T17:04:32.161Z,17.67
2023-02-14T17:07:01.954Z,17.13
2023-02-14T17:09:30.374Z,18.23
2023-02-14T17:11:58.502Z,21.63
2023-02-14T17:14:28.240Z,23.33
2023-02-14T17:16:56.501Z,21.07
2023-02-14T17:19:23.278Z,17.07
2023-02-14T17:21:49.817Z,17.47
2023-02-14T17:24:17.781Z,21.77
2023-02-14T17:26:44.744Z,18.93
2023-02-14T17:29:12.535Z,18.47
2023-02-14T17:31:39.279Z,17.67
2023-02-14T17:34:06.355Z,17.53
2023-02-14T17:36:35.644Z,18.87
2023-02-14T17:39:03.703Z,17.83
2023-02-14T17:41:30.537Z,16.83
2023-02-14T17:44:00.468Z,18.03
2023-02-14T17:46:28.749Z,17.23
2023-02-14T17:48:55.602Z,20.83
2023-02-14T17:51:33.393Z,18.70
2023-02-14T17:54:08.696Z,81.50
2023-02-14T17:56:35.184Z,25.57
2023-02-14T17:59:01.589Z,18.70
2023-02-14T18:01:31.372Z,17.60
2023-02-14T18:03:57.885Z,20.13
2023-02-14T18:06:24.355Z,18.27
2023-02-14T18:08:52.798Z,18.73
2023-02-14T18:11:19.888Z,18.40
2023-02-14T18:13:46.564Z,18.13
2023-02-14T18:16:17.549Z,18.40
2023-02-14T18:18:44.333Z,17.70
2023-02-14T18:21:11.783Z,17.73
2023-02-14T18:23:38.185Z,17.47
2023-02-14T18:26:06.053Z,17.47
2023-02-14T18:28:33.155Z,17.60
2023-02-14T18:31:06.963Z,17.57
2023-02-14T18:33:34.171Z,18.60
2023-02-14T18:36:20.282Z,17.70
2023-02-14T18:38:48.386Z,17.87
2023-02-14T18:41:15.871Z,19.13
2023-02-14T18:43:42.816Z,18.00
2023-02-14T18:46:10.103Z,18.17
2023-02-14T18:48:37.702Z,17.67
2023-02-14T18:51:24.539Z,18.00
2023-02-14T18:53:54.588Z,18.90
2023-02-14T18:56:22.422Z,20.67
2023-02-14T18:58:50.787Z,19.57
2023-02-14T19:01:18.996Z,20.30
2023-02-14T19:03:45.498Z,20.20
2023-02-14T19:06:12.583Z,18.83
2023-02-14T19:08:39.873Z,18.77
2023-02-14T19:11:12.841Z,20.33
2023-02-14T19:13:39.337Z,20.37
2023-02-14T19:16:09.254Z,19.97
2023-02-14T19:18:35.611Z,20.70
2023-02-14T19:21:12.627Z,20.60
2023-02-14T19:23:39.910Z,21.37
2023-02-14T19:26:10.389Z,20.07
2023-02-14T19:28:36.796Z,20.90
2023-02-14T19:31:03.913Z,20.37
2023-02-14T19:33:30.626Z,21.13
2023-02-14T19:36:01.410Z,22.63
2023-02-14T19:38:28.100Z,21.10
2023-02-14T19:40:56.372Z,21.23
2023-02-14T19:43:22.763Z,21.87
2023-02-14T19:45:50.921Z,22.83
2023-02-14T19:48:17.420Z,23.73
2023-02-14T19:50:44.029Z,24.00
2023-02-14T19:53:10.535Z,25.37
2023-02-14T19:55:40.522Z,24.13
2023-02-14T19:58:07.767Z,24.37
2023-02-14T20:00:37.398Z,23.30
2023-02-14T20:03:03.950Z,23.93
2023-02-14T20:05:30.383Z,23.60
2023-02-14T20:07:56.861Z,24.20
2023-02-14T20:10:23.400Z,23.53
2023-02-14T20:12:49.918Z,25.17
2023-02-14T20:15:16.503Z,26.67
2023-02-14T20:17:42.993Z,26.23
2023-02-14T20:20:13.799Z,24.00
2023-02-14T20:22:40.971Z,25.80
2023-02-14T20:25:09.006Z,25.50
2023-02-14T20:27:35.951Z,25.83
2023-02-14T20:30:02.462Z,26.53
2023-02-14T20:32:28.877Z,25.43
2023-02-14T20:34:55.953Z,25.73
2023-02-14T20:37:23.933Z,25.70
2023-02-14T20:39:50.616Z,26.67
2023-02-14T20:42:17.272Z,26.63
2023-02-14T20:44:45.437Z,27.70
2023-02-14T20:47:11.995Z,27.33
2023-02-14T20:49:39.120Z,27.00
2023-02-14T20:52:06.024Z,25.97
2023-02-14T20:54:32.481Z,26.70
2023-02-14T20:56:59.100Z,26.20
2023-02-14T20:59:29.056Z,27.57
2023-02-14T21:01:56.270Z,27.50
2023-02-14T21:04:22.780Z,28.00
2023-02-14T21:06:49.216Z,28.57
2023-02-14T21:09:16.334Z,27.43
2023-02-14T21:11:42.837Z,26.97
2023-02-14T21:14:11.882Z,28.50
2023-02-14T21:16:38.298Z,30.23
2023-02-14T21:19:05.907Z,29.10
2023-02-14T21:21:34.922Z,30.73
2023-02-14T21:24:11.634Z,28.33
2023-02-14T21:26:39.101Z,28.60
2023-02-14T21:29:05.944Z,30.30
2023-02-14T21:31:32.515Z,31.00
2023-02-14T21:33:59.814Z,28.77
2023-02-14T21:36:27.367Z,27.27
2023-02-14T21:38:54.981Z,30.73
2023-02-14T21:41:22.397Z,30.20
2023-02-14T21:43:52.614Z,31.80
2023-02-14T21:46:21.479Z,30.83
2023-02-14T21:49:06.607Z,31.07
2023-02-14T21:51:32.952Z,32.87
2023-02-14T21:54:00.937Z,32.57
2023-02-14T21:56:27.894Z,31.50
2023-02-14T21:58:56.015Z,32.67
2023-02-14T22:01:26.830Z,30.03
2023-02-14T22:03:54.377Z,33.47
2023-02-14T22:06:20.957Z,30.83
2023-02-14T22:08:51.649Z,33.80
2023-02-14T22:11:19.159Z,31.40
2023-02-14T22:13:45.621Z,33.43
2023-02-14T22:16:14.332Z,31.50
2023-02-14T22:18:41.340Z,34.27
2023-02-14T22:21:11.713Z,32.20
2023-02-14T22:23:38.392Z,33.00
2023-02-14T22:26:12.948Z,33.20
2023-02-14T22:28:40.271Z,33.27
2023-02-14T22:31:07.337Z,34.00
2023-02-14T22:33:33.847Z,34.97
2023-02-14T22:36:01.106Z,35.07
2023-02-14T22:38:27.676Z,34.37
2023-02-14T22:40:54.305Z,34.20
2023-02-14T22:43:21.785Z,33.97
2023-02-14T22:45:48.461Z,32.73
2023-02-14T22:48:15.268Z,32.40
2023-02-14T22:50:41.933Z,32.60
2023-02-14T22:53:08.400Z,33.43
2023-02-14T22:55:34.753Z,32.70
2023-02-14T22:58:01.388Z,32.20
2023-02-14T23:00:27.841Z,32.03
2023-02-14T23:02:54.244Z,34.40
2023-02-14T23:05:20.703Z,33.73
2023-02-14T23:07:47.097Z,31.70
2023-02-14T23:10:13.494Z,33.57
2023-02-14T23:12:58.564Z,31.43
2023-02-14T23:16:03.874Z,30.77
2023-02-14T23:18:48.877Z,31.67
2023-02-14T23:21:33.982Z,33.37
2023-02-14T23:24:00.383Z,33.00
2023-02-14T23:26:26.811Z,34.00
2023-02-14T23:28:53.238Z,32.50
2023-02-14T23:31:19.911Z,34.73
2023-02-14T23:33:50.440Z,33.30
2023-02-14T23:36:16.790Z,34.00
2023-02-14T23:38:43.220Z,34.17
2023-02-14T23:41:28.531Z,36.40
2023-02-14T23:43:54.917Z,35.20
2023-02-14T23:46:21.894Z,35.07
2023-02-14T23:48:48.271Z,33.70
2023-02-14T23:51:15.147Z,32.67
2023-02-14T23:53:41.536Z,34.90
2023-02-14T23:56:07.952Z,34.03
2023-02-14T23:58:34.332Z,33.43
